sensor_id;sensor_type;location;lat;lon;timestamp;P1;durP1;ratioP1;P2;durP2;ratioP2
5805;SDS011;2929;50.810;8.342;2022-08-06T00:01:31;4.00;;;1.20;;
5805;SDS011;2929;50.810;8.342;2022-08-06T00:04:00;6.63;;;1.43;;
5805;SDS011;2929;50.810;8.342;2022-08-06T00:06:27;4.33;;;1.10;;
5805;SDS011;2929;50.810;8.342;2022-08-06T00:08:54;1.80;;;1.33;;
5805;SDS011;2929;50.810;8.342;2022-08-06T00:11:21;1.57;;;1.30;;
5805;SDS011;2929;50.810;8.342;2022-08-06T00:13:48;1.30;;;1.23;;
5805;SDS011;2929;50.810;8.342;2022-08-06T00:16:15;2.00;;;1.40;;
5805;SDS011;2929;50.810;8.342;2022-08-06T00:18:43;1.93;;;1.37;;
5805;SDS011;2929;50.810;8.342;2022-08-06T00:21:11;2.87;;;1.23;;
5805;SDS011;2929;50.810;8.342;2022-08-06T00:23:38;8.40;;;1.40;;
5805;SDS011;2929;50.810;8.342;2022-08-06T00:26:05;5.50;;;1.67;;
5805;SDS011;2929;50.810;8.342;2022-08-06T00:28:32;4.00;;;1.20;;
5805;SDS011;2929;50.810;8.342;2022-08-06T00:31:00;2.40;;;1.50;;
5805;SDS011;2929;50.810;8.342;2022-08-06T00:33:29;3.87;;;1.50;;
5805;SDS011;2929;50.810;8.342;2022-08-06T00:35:56;1.40;;;1.30;;
5805;SDS011;2929;50.810;8.342;2022-08-06T00:38:25;2.07;;;1.60;;
5805;SDS011;2929;50.810;8.342;2022-08-06T00:40:52;2.07;;;1.33;;
5805;SDS011;2929;50.810;8.342;2022-08-06T00:43:19;3.40;;;1.57;;
5805;SDS011;2929;50.810;8.342;2022-08-06T00:45:47;4.47;;;1.50;;
5805;SDS011;2929;50.810;8.342;2022-08-06T00:48:14;3.27;;;1.60;;
5805;SDS011;2929;50.810;8.342;2022-08-06T00:50:41;1.30;;;1.10;;
5805;SDS011;2929;50.810;8.342;2022-08-06T00:53:08;1.57;;;1.47;;
5805;SDS011;2929;50.810;8.342;2022-08-06T00:55:37;3.80;;;1.67;;
5805;SDS011;2929;50.810;8.342;2022-08-06T00:58:04;3.50;;;1.50;;
5805;SDS011;2929;50.810;8.342;2022-08-06T01:00:32;4.80;;;1.40;;
5805;SDS011;2929;50.810;8.342;2022-08-06T01:02:59;2.73;;;1.50;;
5805;SDS011;2929;50.810;8.342;2022-08-06T01:05:26;1.60;;;1.33;;
5805;SDS011;2929;50.810;8.342;2022-08-06T01:07:53;1.60;;;1.20;;
5805;SDS011;2929;50.810;8.342;2022-08-06T01:10:20;1.83;;;1.63;;
5805;SDS011;2929;50.810;8.342;2022-08-06T01:12:49;3.90;;;1.20;;
5805;SDS011;2929;50.810;8.342;2022-08-06T01:15:16;1.53;;;1.43;;
5805;SDS011;2929;50.810;8.342;2022-08-06T01:17:46;3.40;;;1.37;;
5805;SDS011;2929;50.810;8.342;2022-08-06T01:20:20;2.20;;;1.67;;
5805;SDS011;2929;50.810;8.342;2022-08-06T01:23:07;3.23;;;1.73;;
5805;SDS011;2929;50.810;8.342;2022-08-06T01:25:51;3.13;;;1.30;;
5805;SDS011;2929;50.810;8.342;2022-08-06T01:28:40;2.47;;;1.40;;
5805;SDS011;2929;50.810;8.342;2022-08-06T01:31:12;3.93;;;1.70;;
5805;SDS011;2929;50.810;8.342;2022-08-06T01:33:44;4.07;;;1.40;;
5805;SDS011;2929;50.810;8.342;2022-08-06T01:36:16;4.20;;;1.80;;
5805;SDS011;2929;50.810;8.342;2022-08-06T01:38:51;1.43;;;1.30;;
5805;SDS011;2929;50.810;8.342;2022-08-06T01:41:21;6.20;;;1.50;;
5805;SDS011;2929;50.810;8.342;2022-08-06T01:44:09;2.10;;;1.90;;
5805;SDS011;2929;50.810;8.342;2022-08-06T01:46:39;2.53;;;1.77;;
5805;SDS011;2929;50.810;8.342;2022-08-06T01:49:09;7.10;;;2.10;;
5805;SDS011;2929;50.810;8.342;2022-08-06T01:51:37;2.40;;;2.03;;
5805;SDS011;2929;50.810;8.342;2022-08-06T01:54:07;1.80;;;1.70;;
5805;SDS011;2929;50.810;8.342;2022-08-06T01:56:37;4.07;;;1.70;;
5805;SDS011;2929;50.810;8.342;2022-08-06T01:59:06;2.50;;;1.67;;
5805;SDS011;2929;50.810;8.342;2022-08-06T02:01:37;3.20;;;1.53;;
5805;SDS011;2929;50.810;8.342;2022-08-06T02:04:05;3.03;;;1.87;;
5805;SDS011;2929;50.810;8.342;2022-08-06T02:06:35;2.37;;;1.90;;
5805;SDS011;2929;50.810;8.342;2022-08-06T02:09:07;3.20;;;2.00;;
5805;SDS011;2929;50.810;8.342;2022-08-06T02:11:37;2.90;;;2.10;;
5805;SDS011;2929;50.810;8.342;2022-08-06T02:14:08;1.60;;;1.50;;
5805;SDS011;2929;50.810;8.342;2022-08-06T02:16:37;5.33;;;1.70;;
5805;SDS011;2929;50.810;8.342;2022-08-06T02:19:08;2.20;;;1.53;;
5805;SDS011;2929;50.810;8.342;2022-08-06T02:21:38;1.70;;;1.60;;
5805;SDS011;2929;50.810;8.342;2022-08-06T02:24:08;2.73;;;1.63;;
5805;SDS011;2929;50.810;8.342;2022-08-06T02:26:36;5.20;;;2.10;;
5805;SDS011;2929;50.810;8.342;2022-08-06T02:29:10;2.70;;;2.27;;
5805;SDS011;2929;50.810;8.342;2022-08-06T02:31:43;1.80;;;1.70;;
5805;SDS011;2929;50.810;8.342;2022-08-06T02:34:11;1.63;;;1.53;;
5805;SDS011;2929;50.810;8.342;2022-08-06T02:36:39;6.33;;;1.63;;
5805;SDS011;2929;50.810;8.342;2022-08-06T02:39:11;1.53;;;1.43;;
5805;SDS011;2929;50.810;8.342;2022-08-06T02:41:43;1.90;;;1.50;;
5805;SDS011;2929;50.810;8.342;2022-08-06T02:44:18;1.77;;;1.43;;
5805;SDS011;2929;50.810;8.342;2022-08-06T02:46:50;2.67;;;1.97;;
5805;SDS011;2929;50.810;8.342;2022-08-06T02:49:25;2.23;;;1.50;;
5805;SDS011;2929;50.810;8.342;2022-08-06T02:51:55;3.87;;;1.40;;
5805;SDS011;2929;50.810;8.342;2022-08-06T02:54:28;1.20;;;1.17;;
5805;SDS011;2929;50.810;8.342;2022-08-06T02:57:02;1.80;;;1.70;;
5805;SDS011;2929;50.810;8.342;2022-08-06T02:59:35;7.83;;;1.30;;
5805;SDS011;2929;50.810;8.342;2022-08-06T03:02:09;3.57;;;1.63;;
5805;SDS011;2929;50.810;8.342;2022-08-06T03:04:39;7.70;;;1.90;;
5805;SDS011;2929;50.810;8.342;2022-08-06T03:07:09;1.43;;;1.33;;
5805;SDS011;2929;50.810;8.342;2022-08-06T03:09:39;2.97;;;1.93;;
5805;SDS011;2929;50.810;8.342;2022-08-06T03:12:07;2.30;;;1.63;;
5805;SDS011;2929;50.810;8.342;2022-08-06T03:14:36;1.63;;;1.23;;
5805;SDS011;2929;50.810;8.342;2022-08-06T03:17:05;7.53;;;1.80;;
5805;SDS011;2929;50.810;8.342;2022-08-06T03:19:33;1.40;;;1.30;;
5805;SDS011;2929;50.810;8.342;2022-08-06T03:22:01;2.83;;;1.50;;
5805;SDS011;2929;50.810;8.342;2022-08-06T03:24:29;4.63;;;1.90;;
5805;SDS011;2929;50.810;8.342;2022-08-06T03:26:59;3.10;;;1.70;;
5805;SDS011;2929;50.810;8.342;2022-08-06T03:29:28;6.80;;;1.70;;
5805;SDS011;2929;50.810;8.342;2022-08-06T03:31:58;2.50;;;1.77;;
5805;SDS011;2929;50.810;8.342;2022-08-06T03:34:27;4.00;;;2.03;;
5805;SDS011;2929;50.810;8.342;2022-08-06T03:36:56;2.00;;;1.20;;
5805;SDS011;2929;50.810;8.342;2022-08-06T03:39:24;4.30;;;1.70;;
5805;SDS011;2929;50.810;8.342;2022-08-06T03:41:53;2.87;;;1.67;;
5805;SDS011;2929;50.810;8.342;2022-08-06T03:44:21;2.83;;;1.50;;
5805;SDS011;2929;50.810;8.342;2022-08-06T03:46:50;1.47;;;1.37;;
5805;SDS011;2929;50.810;8.342;2022-08-06T03:49:23;2.00;;;1.80;;
5805;SDS011;2929;50.810;8.342;2022-08-06T03:51:53;1.70;;;1.60;;
5805;SDS011;2929;50.810;8.342;2022-08-06T03:54:23;2.47;;;1.90;;
5805;SDS011;2929;50.810;8.342;2022-08-06T03:56:52;2.17;;;1.70;;
5805;SDS011;2929;50.810;8.342;2022-08-06T03:59:23;3.10;;;1.77;;
5805;SDS011;2929;50.810;8.342;2022-08-06T04:01:52;1.80;;;1.50;;
5805;SDS011;2929;50.810;8.342;2022-08-06T04:04:22;2.97;;;1.70;;
5805;SDS011;2929;50.810;8.342;2022-08-06T04:06:51;2.03;;;1.47;;
5805;SDS011;2929;50.810;8.342;2022-08-06T04:09:20;4.60;;;1.67;;
5805;SDS011;2929;50.810;8.342;2022-08-06T04:11:49;1.73;;;1.63;;
5805;SDS011;2929;50.810;8.342;2022-08-06T04:14:17;2.77;;;1.50;;
5805;SDS011;2929;50.810;8.342;2022-08-06T04:16:44;6.00;;;1.70;;
5805;SDS011;2929;50.810;8.342;2022-08-06T04:19:13;2.50;;;1.80;;
5805;SDS011;2929;50.810;8.342;2022-08-06T04:21:45;3.83;;;1.57;;
5805;SDS011;2929;50.810;8.342;2022-08-06T04:24:13;1.57;;;1.47;;
5805;SDS011;2929;50.810;8.342;2022-08-06T04:26:41;1.60;;;1.43;;
5805;SDS011;2929;50.810;8.342;2022-08-06T04:29:11;1.67;;;1.57;;
5805;SDS011;2929;50.810;8.342;2022-08-06T04:31:42;3.37;;;2.10;;
5805;SDS011;2929;50.810;8.342;2022-08-06T04:34:11;3.73;;;1.80;;
5805;SDS011;2929;50.810;8.342;2022-08-06T04:36:39;2.40;;;1.60;;
5805;SDS011;2929;50.810;8.342;2022-08-06T04:39:08;5.07;;;1.53;;
5805;SDS011;2929;50.810;8.342;2022-08-06T04:41:37;4.53;;;1.53;;
5805;SDS011;2929;50.810;8.342;2022-08-06T04:44:04;2.70;;;1.67;;
5805;SDS011;2929;50.810;8.342;2022-08-06T04:46:31;2.40;;;1.40;;
5805;SDS011;2929;50.810;8.342;2022-08-06T04:48:59;1.80;;;1.70;;
5805;SDS011;2929;50.810;8.342;2022-08-06T04:51:26;2.03;;;1.70;;
5805;SDS011;2929;50.810;8.342;2022-08-06T04:53:54;2.90;;;1.90;;
5805;SDS011;2929;50.810;8.342;2022-08-06T04:56:23;1.83;;;1.73;;
5805;SDS011;2929;50.810;8.342;2022-08-06T04:58:50;2.10;;;1.57;;
5805;SDS011;2929;50.810;8.342;2022-08-06T05:01:17;1.80;;;1.60;;
5805;SDS011;2929;50.810;8.342;2022-08-06T05:03:44;1.97;;;1.87;;
5805;SDS011;2929;50.810;8.342;2022-08-06T05:06:13;2.83;;;1.73;;
5805;SDS011;2929;50.810;8.342;2022-08-06T05:08:45;1.80;;;1.70;;
5805;SDS011;2929;50.810;8.342;2022-08-06T05:11:16;3.53;;;2.00;;
5805;SDS011;2929;50.810;8.342;2022-08-06T05:13:51;3.10;;;1.83;;
5805;SDS011;2929;50.810;8.342;2022-08-06T05:16:27;2.40;;;1.33;;
5805;SDS011;2929;50.810;8.342;2022-08-06T05:19:01;1.90;;;1.70;;
5805;SDS011;2929;50.810;8.342;2022-08-06T05:21:33;1.83;;;1.67;;
5805;SDS011;2929;50.810;8.342;2022-08-06T05:24:03;1.60;;;1.50;;
5805;SDS011;2929;50.810;8.342;2022-08-06T05:26:30;2.43;;;1.60;;
5805;SDS011;2929;50.810;8.342;2022-08-06T05:29:01;7.50;;;2.07;;
5805;SDS011;2929;50.810;8.342;2022-08-06T05:31:29;4.20;;;1.50;;
5805;SDS011;2929;50.810;8.342;2022-08-06T05:33:57;2.10;;;1.77;;
5805;SDS011;2929;50.810;8.342;2022-08-06T05:36:24;3.40;;;2.00;;
5805;SDS011;2929;50.810;8.342;2022-08-06T05:38:51;4.73;;;2.30;;
5805;SDS011;2929;50.810;8.342;2022-08-06T05:41:18;2.23;;;2.03;;
5805;SDS011;2929;50.810;8.342;2022-08-06T05:43:45;2.77;;;2.13;;
5805;SDS011;2929;50.810;8.342;2022-08-06T05:46:15;4.93;;;1.60;;
5805;SDS011;2929;50.810;8.342;2022-08-06T05:48:45;1.77;;;1.67;;
5805;SDS011;2929;50.810;8.342;2022-08-06T05:51:21;2.03;;;1.90;;
5805;SDS011;2929;50.810;8.342;2022-08-06T05:53:57;4.50;;;1.90;;
5805;SDS011;2929;50.810;8.342;2022-08-06T05:56:29;2.13;;;1.93;;
5805;SDS011;2929;50.810;8.342;2022-08-06T05:59:02;3.93;;;1.73;;
5805;SDS011;2929;50.810;8.342;2022-08-06T06:01:34;2.40;;;1.87;;
5805;SDS011;2929;50.810;8.342;2022-08-06T06:04:02;2.60;;;1.77;;
5805;SDS011;2929;50.810;8.342;2022-08-06T06:06:30;3.53;;;1.50;;
5805;SDS011;2929;50.810;8.342;2022-08-06T06:08:57;3.03;;;1.47;;
5805;SDS011;2929;50.810;8.342;2022-08-06T06:11:25;2.70;;;1.90;;
5805;SDS011;2929;50.810;8.342;2022-08-06T06:13:53;4.87;;;1.90;;
5805;SDS011;2929;50.810;8.342;2022-08-06T06:16:22;13.47;;;2.20;;
5805;SDS011;2929;50.810;8.342;2022-08-06T06:18:58;3.20;;;1.70;;
5805;SDS011;2929;50.810;8.342;2022-08-06T06:21:34;1.73;;;1.63;;
5805;SDS011;2929;50.810;8.342;2022-08-06T06:24:09;2.80;;;1.90;;
5805;SDS011;2929;50.810;8.342;2022-08-06T06:26:44;9.23;;;1.73;;
5805;SDS011;2929;50.810;8.342;2022-08-06T06:29:16;2.20;;;1.63;;
5805;SDS011;2929;50.810;8.342;2022-08-06T06:31:56;3.17;;;1.70;;
5805;SDS011;2929;50.810;8.342;2022-08-06T06:34:32;4.60;;;1.73;;
5805;SDS011;2929;50.810;8.342;2022-08-06T06:37:10;4.30;;;1.77;;
5805;SDS011;2929;50.810;8.342;2022-08-06T06:39:45;3.33;;;1.83;;
5805;SDS011;2929;50.810;8.342;2022-08-06T06:42:22;3.40;;;1.77;;
5805;SDS011;2929;50.810;8.342;2022-08-06T06:44:57;4.47;;;1.90;;
5805;SDS011;2929;50.810;8.342;2022-08-06T06:47:32;4.47;;;1.60;;
5805;SDS011;2929;50.810;8.342;2022-08-06T06:50:09;1.43;;;1.37;;
5805;SDS011;2929;50.810;8.342;2022-08-06T06:52:40;5.90;;;1.80;;
5805;SDS011;2929;50.810;8.342;2022-08-06T06:55:09;1.67;;;1.23;;
5805;SDS011;2929;50.810;8.342;2022-08-06T06:57:41;2.83;;;1.53;;
5805;SDS011;2929;50.810;8.342;2022-08-06T07:00:11;2.23;;;1.30;;
5805;SDS011;2929;50.810;8.342;2022-08-06T07:02:39;4.33;;;1.60;;
5805;SDS011;2929;50.810;8.342;2022-08-06T07:05:09;1.73;;;1.50;;
5805;SDS011;2929;50.810;8.342;2022-08-06T07:07:38;4.83;;;1.50;;
5805;SDS011;2929;50.810;8.342;2022-08-06T07:10:07;1.50;;;1.20;;
5805;SDS011;2929;50.810;8.342;2022-08-06T07:12:37;5.30;;;1.90;;
5805;SDS011;2929;50.810;8.342;2022-08-06T07:15:08;2.30;;;1.40;;
5805;SDS011;2929;50.810;8.342;2022-08-06T07:17:38;2.67;;;1.13;;
5805;SDS011;2929;50.810;8.342;2022-08-06T07:20:06;5.00;;;1.50;;
5805;SDS011;2929;50.810;8.342;2022-08-06T07:22:38;3.10;;;1.20;;
5805;SDS011;2929;50.810;8.342;2022-08-06T07:25:09;1.80;;;1.30;;
5805;SDS011;2929;50.810;8.342;2022-08-06T07:27:40;3.87;;;1.30;;
5805;SDS011;2929;50.810;8.342;2022-08-06T07:30:12;2.80;;;1.10;;
5805;SDS011;2929;50.810;8.342;2022-08-06T07:32:42;1.23;;;0.80;;
5805;SDS011;2929;50.810;8.342;2022-08-06T07:35:13;4.83;;;1.20;;
5805;SDS011;2929;50.810;8.342;2022-08-06T07:37:42;5.10;;;1.50;;
5805;SDS011;2929;50.810;8.342;2022-08-06T07:40:20;4.37;;;0.97;;
5805;SDS011;2929;50.810;8.342;2022-08-06T07:42:53;7.30;;;1.40;;
5805;SDS011;2929;50.810;8.342;2022-08-06T07:45:25;2.10;;;0.77;;
5805;SDS011;2929;50.810;8.342;2022-08-06T07:47:55;6.53;;;1.23;;
5805;SDS011;2929;50.810;8.342;2022-08-06T07:50:25;1.10;;;1.00;;
5805;SDS011;2929;50.810;8.342;2022-08-06T07:52:54;3.70;;;0.93;;
5805;SDS011;2929;50.810;8.342;2022-08-06T07:55:22;4.10;;;1.00;;
5805;SDS011;2929;50.810;8.342;2022-08-06T07:57:51;3.93;;;1.10;;
5805;SDS011;2929;50.810;8.342;2022-08-06T08:00:18;1.37;;;1.00;;
5805;SDS011;2929;50.810;8.342;2022-08-06T08:02:46;2.10;;;1.13;;
5805;SDS011;2929;50.810;8.342;2022-08-06T08:05:28;7.10;;;1.10;;
5805;SDS011;2929;50.810;8.342;2022-08-06T08:08:14;4.93;;;1.83;;
5805;SDS011;2929;50.810;8.342;2022-08-06T08:10:41;2.10;;;0.77;;
5805;SDS011;2929;50.810;8.342;2022-08-06T08:13:08;7.00;;;0.80;;
5805;SDS011;2929;50.810;8.342;2022-08-06T08:15:37;4.40;;;1.23;;
5805;SDS011;2929;50.810;8.342;2022-08-06T08:18:05;1.63;;;0.77;;
5805;SDS011;2929;50.810;8.342;2022-08-06T08:20:34;2.23;;;0.93;;
5805;SDS011;2929;50.810;8.342;2022-08-06T08:23:05;3.40;;;0.70;;
5805;SDS011;2929;50.810;8.342;2022-08-06T08:25:33;4.33;;;0.90;;
5805;SDS011;2929;50.810;8.342;2022-08-06T08:28:00;1.83;;;0.80;;
5805;SDS011;2929;50.810;8.342;2022-08-06T08:30:27;0.83;;;0.70;;
5805;SDS011;2929;50.810;8.342;2022-08-06T08:32:55;0.93;;;0.80;;
5805;SDS011;2929;50.810;8.342;2022-08-06T08:35:22;6.33;;;0.90;;
5805;SDS011;2929;50.810;8.342;2022-08-06T08:37:51;3.43;;;0.90;;
5805;SDS011;2929;50.810;8.342;2022-08-06T08:40:18;2.03;;;0.80;;
5805;SDS011;2929;50.810;8.342;2022-08-06T08:42:45;2.30;;;0.80;;
5805;SDS011;2929;50.810;8.342;2022-08-06T08:45:18;1.33;;;0.90;;
5805;SDS011;2929;50.810;8.342;2022-08-06T08:47:49;2.10;;;0.80;;
5805;SDS011;2929;50.810;8.342;2022-08-06T08:50:18;2.87;;;0.90;;
5805;SDS011;2929;50.810;8.342;2022-08-06T08:52:48;3.00;;;1.67;;
5805;SDS011;2929;50.810;8.342;2022-08-06T08:55:19;2.00;;;0.93;;
5805;SDS011;2929;50.810;8.342;2022-08-06T08:57:50;1.03;;;0.80;;
5805;SDS011;2929;50.810;8.342;2022-08-06T09:00:19;3.00;;;1.00;;
5805;SDS011;2929;50.810;8.342;2022-08-06T09:02:46;1.23;;;0.90;;
5805;SDS011;2929;50.810;8.342;2022-08-06T09:05:14;3.30;;;1.00;;
5805;SDS011;2929;50.810;8.342;2022-08-06T09:07:41;1.13;;;0.73;;
5805;SDS011;2929;50.810;8.342;2022-08-06T09:10:12;1.43;;;0.80;;
5805;SDS011;2929;50.810;8.342;2022-08-06T09:12:40;0.83;;;0.80;;
5805;SDS011;2929;50.810;8.342;2022-08-06T09:15:08;2.13;;;0.90;;
5805;SDS011;2929;50.810;8.342;2022-08-06T09:17:35;6.73;;;0.80;;
5805;SDS011;2929;50.810;8.342;2022-08-06T09:20:03;2.40;;;0.80;;
5805;SDS011;2929;50.810;8.342;2022-08-06T09:22:31;3.07;;;1.03;;
5805;SDS011;2929;50.810;8.342;2022-08-06T09:24:58;0.83;;;0.60;;
5805;SDS011;2929;50.810;8.342;2022-08-06T09:27:33;1.97;;;0.97;;
5805;SDS011;2929;50.810;8.342;2022-08-06T09:30:02;2.27;;;0.90;;
5805;SDS011;2929;50.810;8.342;2022-08-06T09:32:40;1.00;;;0.70;;
5805;SDS011;2929;50.810;8.342;2022-08-06T09:35:16;6.93;;;1.00;;
5805;SDS011;2929;50.810;8.342;2022-08-06T09:37:44;3.50;;;0.70;;
5805;SDS011;2929;50.810;8.342;2022-08-06T09:40:12;1.73;;;0.70;;
5805;SDS011;2929;50.810;8.342;2022-08-06T09:42:42;1.37;;;0.50;;
5805;SDS011;2929;50.810;8.342;2022-08-06T09:45:12;1.17;;;0.80;;
5805;SDS011;2929;50.810;8.342;2022-08-06T09:47:40;3.27;;;0.77;;
5805;SDS011;2929;50.810;8.342;2022-08-06T09:50:08;1.07;;;0.70;;
5805;SDS011;2929;50.810;8.342;2022-08-06T09:52:35;0.93;;;0.77;;
5805;SDS011;2929;50.810;8.342;2022-08-06T09:55:02;2.30;;;0.70;;
5805;SDS011;2929;50.810;8.342;2022-08-06T09:57:41;2.87;;;1.00;;
5805;SDS011;2929;50.810;8.342;2022-08-06T10:00:10;1.40;;;0.70;;
5805;SDS011;2929;50.810;8.342;2022-08-06T10:02:54;1.50;;;0.77;;
5805;SDS011;2929;50.810;8.342;2022-08-06T10:05:23;1.77;;;0.70;;
5805;SDS011;2929;50.810;8.342;2022-08-06T10:08:02;1.87;;;0.70;;
5805;SDS011;2929;50.810;8.342;2022-08-06T10:10:41;6.20;;;0.83;;
5805;SDS011;2929;50.810;8.342;2022-08-06T10:13:12;2.60;;;0.70;;
5805;SDS011;2929;50.810;8.342;2022-08-06T10:15:46;2.77;;;0.70;;
5805;SDS011;2929;50.810;8.342;2022-08-06T10:18:32;5.97;;;0.83;;
5805;SDS011;2929;50.810;8.342;2022-08-06T10:21:06;1.10;;;0.80;;
5805;SDS011;2929;50.810;8.342;2022-08-06T10:23:34;2.50;;;0.80;;
5805;SDS011;2929;50.810;8.342;2022-08-06T10:26:03;5.90;;;1.00;;
5805;SDS011;2929;50.810;8.342;2022-08-06T10:28:33;1.47;;;0.70;;
5805;SDS011;2929;50.810;8.342;2022-08-06T10:31:02;2.50;;;0.90;;
5805;SDS011;2929;50.810;8.342;2022-08-06T10:33:31;1.50;;;0.80;;
5805;SDS011;2929;50.810;8.342;2022-08-06T10:36:03;2.43;;;1.00;;
5805;SDS011;2929;50.810;8.342;2022-08-06T10:38:34;2.50;;;1.43;;
5805;SDS011;2929;50.810;8.342;2022-08-06T10:41:05;0.80;;;0.70;;
5805;SDS011;2929;50.810;8.342;2022-08-06T10:43:35;0.90;;;0.80;;
5805;SDS011;2929;50.810;8.342;2022-08-06T10:46:04;4.57;;;1.20;;
5805;SDS011;2929;50.810;8.342;2022-08-06T10:48:32;2.43;;;0.90;;
5805;SDS011;2929;50.810;8.342;2022-08-06T10:51:01;3.17;;;1.00;;
5805;SDS011;2929;50.810;8.342;2022-08-06T10:53:29;1.00;;;0.77;;
5805;SDS011;2929;50.810;8.342;2022-08-06T10:55:59;1.93;;;0.87;;
5805;SDS011;2929;50.810;8.342;2022-08-06T10:58:29;2.83;;;0.80;;
5805;SDS011;2929;50.810;8.342;2022-08-06T11:00:59;0.97;;;0.87;;
5805;SDS011;2929;50.810;8.342;2022-08-06T11:03:30;2.00;;;0.93;;
5805;SDS011;2929;50.810;8.342;2022-08-06T11:06:19;2.73;;;0.80;;
5805;SDS011;2929;50.810;8.342;2022-08-06T11:09:03;2.00;;;0.80;;
5805;SDS011;2929;50.810;8.342;2022-08-06T11:11:45;1.33;;;0.70;;
5805;SDS011;2929;50.810;8.342;2022-08-06T11:14:27;3.23;;;0.90;;
5805;SDS011;2929;50.810;8.342;2022-08-06T11:16:56;1.47;;;0.60;;
5805;SDS011;2929;50.810;8.342;2022-08-06T11:19:40;1.83;;;0.80;;
5805;SDS011;2929;50.810;8.342;2022-08-06T11:25:01;1.00;;;0.90;;
5805;SDS011;2929;50.810;8.342;2022-08-06T11:27:48;1.13;;;0.70;;
5805;SDS011;2929;50.810;8.342;2022-08-06T11:30:21;2.23;;;0.77;;
5805;SDS011;2929;50.810;8.342;2022-08-06T11:33:03;1.80;;;0.90;;
5805;SDS011;2929;50.810;8.342;2022-08-06T11:35:40;1.77;;;0.60;;
5805;SDS011;2929;50.810;8.342;2022-08-06T11:38:09;2.10;;;0.80;;
5805;SDS011;2929;50.810;8.342;2022-08-06T11:40:55;1.73;;;0.83;;
5805;SDS011;2929;50.810;8.342;2022-08-06T11:46:17;1.67;;;0.87;;
5805;SDS011;2929;50.810;8.342;2022-08-06T11:51:42;1.03;;;0.77;;
5805;SDS011;2929;50.810;8.342;2022-08-06T11:54:12;1.43;;;1.00;;
5805;SDS011;2929;50.810;8.342;2022-08-06T11:59:46;2.97;;;1.40;;
5805;SDS011;2929;50.810;8.342;2022-08-06T12:02:47;6.60;;;1.47;;
5805;SDS011;2929;50.810;8.342;2022-08-06T12:08:19;1.43;;;0.80;;
5805;SDS011;2929;50.810;8.342;2022-08-06T12:14:00;0.60;;;0.60;;
5805;SDS011;2929;50.810;8.342;2022-08-06T12:16:32;0.60;;;0.60;;
5805;SDS011;2929;50.810;8.342;2022-08-06T12:19:03;1.03;;;0.70;;
5805;SDS011;2929;50.810;8.342;2022-08-06T12:21:34;3.03;;;0.67;;
5805;SDS011;2929;50.810;8.342;2022-08-06T12:24:04;2.37;;;0.90;;
5805;SDS011;2929;50.810;8.342;2022-08-06T12:26:32;1.40;;;0.60;;
5805;SDS011;2929;50.810;8.342;2022-08-06T12:29:00;2.00;;;0.90;;
5805;SDS011;2929;50.810;8.342;2022-08-06T12:31:32;1.47;;;0.87;;
5805;SDS011;2929;50.810;8.342;2022-08-06T12:34:01;0.93;;;0.80;;
5805;SDS011;2929;50.810;8.342;2022-08-06T12:36:30;0.87;;;0.60;;
5805;SDS011;2929;50.810;8.342;2022-08-06T12:39:00;1.83;;;1.00;;
5805;SDS011;2929;50.810;8.342;2022-08-06T12:41:36;1.37;;;0.70;;
5805;SDS011;2929;50.810;8.342;2022-08-06T12:44:06;2.00;;;0.70;;
5805;SDS011;2929;50.810;8.342;2022-08-06T12:46:37;1.20;;;0.70;;
5805;SDS011;2929;50.810;8.342;2022-08-06T12:49:04;1.53;;;0.80;;
5805;SDS011;2929;50.810;8.342;2022-08-06T12:51:32;2.70;;;0.80;;
5805;SDS011;2929;50.810;8.342;2022-08-06T12:54:02;2.23;;;1.03;;
5805;SDS011;2929;50.810;8.342;2022-08-06T12:56:36;0.97;;;0.90;;
5805;SDS011;2929;50.810;8.342;2022-08-06T12:59:05;1.30;;;0.80;;
5805;SDS011;2929;50.810;8.342;2022-08-06T13:01:35;0.90;;;0.60;;
5805;SDS011;2929;50.810;8.342;2022-08-06T13:04:05;1.73;;;0.80;;
5805;SDS011;2929;50.810;8.342;2022-08-06T13:06:35;0.97;;;0.70;;
5805;SDS011;2929;50.810;8.342;2022-08-06T13:09:05;2.20;;;0.70;;
5805;SDS011;2929;50.810;8.342;2022-08-06T13:11:32;1.60;;;0.70;;
5805;SDS011;2929;50.810;8.342;2022-08-06T13:14:07;4.63;;;0.60;;
5805;SDS011;2929;50.810;8.342;2022-08-06T13:16:44;0.73;;;0.60;;
5805;SDS011;2929;50.810;8.342;2022-08-06T13:19:13;0.70;;;0.70;;
5805;SDS011;2929;50.810;8.342;2022-08-06T13:21:41;1.43;;;0.80;;
5805;SDS011;2929;50.810;8.342;2022-08-06T13:24:11;1.43;;;0.90;;
5805;SDS011;2929;50.810;8.342;2022-08-06T13:26:49;3.10;;;0.73;;
5805;SDS011;2929;50.810;8.342;2022-08-06T13:29:18;2.80;;;0.70;;
5805;SDS011;2929;50.810;8.342;2022-08-06T13:31:56;0.90;;;0.63;;
5805;SDS011;2929;50.810;8.342;2022-08-06T13:34:27;0.97;;;0.70;;
5805;SDS011;2929;50.810;8.342;2022-08-06T13:36:55;1.10;;;0.60;;
5805;SDS011;2929;50.810;8.342;2022-08-06T13:39:26;5.23;;;0.57;;
5805;SDS011;2929;50.810;8.342;2022-08-06T13:42:02;1.23;;;0.60;;
5805;SDS011;2929;50.810;8.342;2022-08-06T13:44:31;2.30;;;0.80;;
5805;SDS011;2929;50.810;8.342;2022-08-06T13:47:00;3.80;;;0.90;;
5805;SDS011;2929;50.810;8.342;2022-08-06T13:49:27;1.77;;;0.70;;
5805;SDS011;2929;50.810;8.342;2022-08-06T13:51:55;3.20;;;0.80;;
5805;SDS011;2929;50.810;8.342;2022-08-06T13:54:22;0.90;;;0.60;;
5805;SDS011;2929;50.810;8.342;2022-08-06T13:56:52;1.67;;;0.73;;
5805;SDS011;2929;50.810;8.342;2022-08-06T13:59:20;0.90;;;0.60;;
5805;SDS011;2929;50.810;8.342;2022-08-06T14:01:49;1.73;;;1.17;;
5805;SDS011;2929;50.810;8.342;2022-08-06T14:04:17;3.90;;;0.90;;
5805;SDS011;2929;50.810;8.342;2022-08-06T14:06:47;0.77;;;0.70;;
5805;SDS011;2929;50.810;8.342;2022-08-06T14:09:16;4.90;;;0.97;;
5805;SDS011;2929;50.810;8.342;2022-08-06T14:11:44;1.70;;;0.73;;
5805;SDS011;2929;50.810;8.342;2022-08-06T14:14:13;2.70;;;0.73;;
5805;SDS011;2929;50.810;8.342;2022-08-06T14:16:40;1.80;;;0.70;;
5805;SDS011;2929;50.810;8.342;2022-08-06T14:19:07;2.20;;;0.70;;
5805;SDS011;2929;50.810;8.342;2022-08-06T14:21:34;1.07;;;0.60;;
5805;SDS011;2929;50.810;8.342;2022-08-06T14:24:01;0.80;;;0.80;;
5805;SDS011;2929;50.810;8.342;2022-08-06T14:26:29;0.70;;;0.60;;
5805;SDS011;2929;50.810;8.342;2022-08-06T14:28:56;2.33;;;0.80;;
5805;SDS011;2929;50.810;8.342;2022-08-06T14:31:25;0.73;;;0.60;;
5805;SDS011;2929;50.810;8.342;2022-08-06T14:33:52;0.80;;;0.70;;
5805;SDS011;2929;50.810;8.342;2022-08-06T14:36:19;2.50;;;0.70;;
5805;SDS011;2929;50.810;8.342;2022-08-06T14:38:46;2.13;;;0.67;;
5805;SDS011;2929;50.810;8.342;2022-08-06T14:41:13;0.70;;;0.70;;
5805;SDS011;2929;50.810;8.342;2022-08-06T14:43:57;1.37;;;0.60;;
5805;SDS011;2929;50.810;8.342;2022-08-06T14:46:43;1.30;;;1.10;;
5805;SDS011;2929;50.810;8.342;2022-08-06T14:49:11;1.77;;;0.80;;
5805;SDS011;2929;50.810;8.342;2022-08-06T14:51:38;0.70;;;0.70;;
5805;SDS011;2929;50.810;8.342;2022-08-06T14:54:05;0.87;;;0.63;;
5805;SDS011;2929;50.810;8.342;2022-08-06T14:56:32;2.70;;;0.90;;
5805;SDS011;2929;50.810;8.342;2022-08-06T14:58:59;0.90;;;0.67;;
5805;SDS011;2929;50.810;8.342;2022-08-06T15:01:26;0.90;;;0.80;;
5805;SDS011;2929;50.810;8.342;2022-08-06T15:03:55;1.53;;;0.70;;
5805;SDS011;2929;50.810;8.342;2022-08-06T15:06:22;2.40;;;0.90;;
5805;SDS011;2929;50.810;8.342;2022-08-06T15:08:49;1.00;;;0.60;;
5805;SDS011;2929;50.810;8.342;2022-08-06T15:11:16;1.30;;;0.70;;
5805;SDS011;2929;50.810;8.342;2022-08-06T15:13:43;1.20;;;0.80;;
5805;SDS011;2929;50.810;8.342;2022-08-06T15:16:10;0.90;;;0.60;;
5805;SDS011;2929;50.810;8.342;2022-08-06T15:18:37;1.07;;;0.60;;
5805;SDS011;2929;50.810;8.342;2022-08-06T15:21:09;0.90;;;0.60;;
5805;SDS011;2929;50.810;8.342;2022-08-06T15:23:36;1.97;;;0.70;;
5805;SDS011;2929;50.810;8.342;2022-08-06T15:26:03;2.50;;;0.60;;
5805;SDS011;2929;50.810;8.342;2022-08-06T15:28:30;3.07;;;0.60;;
5805;SDS011;2929;50.810;8.342;2022-08-06T15:30:57;3.03;;;0.80;;
5805;SDS011;2929;50.810;8.342;2022-08-06T15:33:25;0.80;;;0.70;;
5805;SDS011;2929;50.810;8.342;2022-08-06T15:35:53;0.60;;;0.60;;
5805;SDS011;2929;50.810;8.342;2022-08-06T15:38:21;1.13;;;0.60;;
5805;SDS011;2929;50.810;8.342;2022-08-06T15:40:49;2.50;;;1.20;;
5805;SDS011;2929;50.810;8.342;2022-08-06T15:43:16;1.03;;;0.70;;
5805;SDS011;2929;50.810;8.342;2022-08-06T15:45:45;1.50;;;1.40;;
5805;SDS011;2929;50.810;8.342;2022-08-06T15:48:12;1.07;;;0.60;;
5805;SDS011;2929;50.810;8.342;2022-08-06T15:50:41;1.90;;;1.00;;
5805;SDS011;2929;50.810;8.342;2022-08-06T15:53:08;2.70;;;0.80;;